Time;durP1;ratioP1;P1;durP2;ratioP2;P2;SDS_P1;SDS_P2;PMS_P1;PMS_P2;Temp;Humidity;BMP_temperature;BMP_pressure;BME280_temperature;BME280_humidity;BME280_pressure;Samples;Min_cycle;Max_cycle;Signal;HPM_P1;HPM_P2
2023/12/05 00:02:23;;;;;;;13.18;6.53;;;;;;;8.38;82.93;98339.56;6314570;22;20393;-93
2023/12/05 00:04:50;;;;;;;9.70;5.20;;;;;;;8.74;82.00;98412.00;6315666;22;20022;-93
2023/12/05 00:07:19;;;;;;;13.35;5.10;;;;;;;9.18;81.86;98457.72;6316096;22;20022;-94
2023/12/05 00:09:45;;;;;;;11.95;4.95;;;;;;;8.51;81.69;98356.94;6316416;22;20105;-92
2023/12/05 00:12:11;;;;;;;8.07;4.47;;;;;;;8.51;79.83;98353.41;6316143;22;20031;-91
2023/12/05 00:14:36;;;;;;;11.88;4.15;;;;;;;9.34;80.45;98499.75;6315492;22;20148;-92
2023/12/05 00:17:02;;;;;;;8.25;4.07;;;;;;;9.23;79.38;98446.97;6314244;22;20461;-92
2023/12/05 00:19:30;;;;;;;7.00;3.97;;;;;;;8.71;78.07;98347.59;6315574;22;20018;-92
2023/12/05 00:21:56;;;;;;;7.57;3.95;;;;;;;8.70;81.13;98357.34;6315048;22;20104;-93
2023/12/05 00:24:21;;;;;;;8.55;3.95;;;;;;;8.82;82.19;98380.84;6314325;22;20038;-93
2023/12/05 00:26:47;;;;;;;8.95;4.68;;;;;;;9.12;82.31;98423.38;6314787;22;20029;-93
2023/12/05 00:29:13;;;;;;;13.98;3.78;;;;;;;9.12;83.91;98409.25;6315695;22;20098;-93
2023/12/05 00:31:39;;;;;;;11.27;4.30;;;;;;;8.51;83.87;98303.06;6315055;22;20046;-93
2023/12/05 00:34:05;;;;;;;8.90;4.45;;;;;;;9.38;87.71;98472.25;6340773;22;20022;-93
2023/12/05 00:36:33;;;;;;;10.57;4.75;;;;;;;8.50;87.63;98338.41;6346845;22;20093;-92
2023/12/05 00:38:59;;;;;;;13.13;4.70;;;;;;;8.87;86.22;98435.53;6346315;22;20018;-93
2023/12/05 00:41:26;;;;;;;11.35;4.35;;;;;;;9.02;86.05;98443.09;6347195;22;20025;-94
2023/12/05 00:43:51;;;;;;;9.90;3.85;;;;;;;8.24;88.23;98297.53;6347119;22;20425;-92
2023/12/05 00:46:18;;;;;;;8.73;3.95;;;;;;;9.10;88.37;98446.44;6346212;22;20105;-92
2023/12/05 00:48:44;;;;;;;6.57;3.60;;;;;;;8.90;93.56;98424.88;6346595;22;20053;-94
2023/12/05 00:51:10;;;;;;;10.18;3.50;;;;;;;8.59;95.38;98407.09;6346541;22;20057;-94
2023/12/05 00:53:37;;;;;;;8.55;2.88;;;;;;;8.60;96.38;98391.13;6346605;22;20022;-94
2023/12/05 00:56:06;;;;;;;7.35;2.78;;;;;;;8.64;97.09;98394.59;6346456;22;20018;-94
2023/12/05 00:58:32;;;;;;;7.18;3.05;;;;;;;8.66;98.36;98403.38;6346315;22;20009;-94
2023/12/05 01:00:58;;;;;;;10.93;2.83;;;;;;;8.98;99.09;98463.56;6345466;22;20516;-94
2023/12/05 01:03:24;;;;;;;10.48;3.03;;;;;;;8.89;98.46;98428.41;6344799;22;20444;-93
2023/12/05 01:05:49;;;;;;;6.57;2.75;;;;;;;8.22;100.00;98382.34;6346788;22;20015;-92
2023/12/05 01:08:15;;;;;;;6.43;2.72;;;;;;;8.06;100.00;98349.16;6347067;22;20022;-94
2023/12/05 01:10:43;;;;;;;9.75;2.63;;;;;;;8.57;100.00;98456.63;6347163;22;20022;-93
2023/12/05 01:13:09;;;;;;;5.97;2.83;;;;;;;7.23;100.00;98297.25;6347220;22;20018;-93
2023/12/05 01:15:34;;;;;;;7.30;3.22;;;;;;;7.91;100.00;98395.41;6346681;22;20053;-94
2023/12/05 01:18:00;;;;;;;5.78;2.55;;;;;;;7.65;100.00;98311.28;6347782;22;20437;-93
2023/12/05 01:20:26;;;;;;;7.03;2.97;;;;;;;8.03;100.00;98413.66;6347826;22;20018;-94
2023/12/05 01:22:52;;;;;;;4.70;1.98;;;;;;;7.52;100.00;98286.88;6348789;22;20037;-93
2023/12/05 01:25:18;;;;;;;7.72;2.50;;;;;;;7.92;100.00;98343.34;6348286;22;20031;-92
2023/12/05 01:27:46;;;;;;;5.18;2.22;;;;;;;8.30;100.00;98443.06;6347620;22;20026;-93
2023/12/05 01:30:12;;;;;;;7.40;2.83;;;;;;;8.39;100.00;98411.06;6346731;22;20023;-93
2023/12/05 01:32:38;;;;;;;6.18;2.20;;;;;;;8.66;100.00;98435.19;6340577;22;20072;-93
2023/12/05 01:35:05;;;;;;;5.18;2.38;;;;;;;8.27;100.00;98400.75;6315966;22;20022;-92
2023/12/05 01:37:31;;;;;;;8.68;2.63;;;;;;;8.30;100.00;98405.97;6316266;22;20018;-94
2023/12/05 01:39:57;;;;;;;3.42;1.77;;;;;;;8.26;100.00;98392.84;6316094;22;20026;-92
2023/12/05 01:42:23;;;;;;;4.63;2.20;;;;;;;8.12;100.00;98394.03;6313879;22;20011;-91
2023/12/05 01:44:50;;;;;;;10.00;2.03;;;;;;;8.30;100.00;98399.81;6315187;22;20018;-93
2023/12/05 01:47:16;;;;;;;4.28;2.08;;;;;;;7.83;100.00;98355.00;6314979;22;20298;-91
2023/12/05 01:49:43;;;;;;;5.75;2.30;;;;;;;8.11;100.00;98386.13;6315250;22;20042;-92
2023/12/05 01:52:09;;;;;;;7.68;2.35;;;;;;;7.77;100.00;98296.91;6315340;22;20125;-94
2023/12/05 01:54:37;;;;;;;3.75;1.98;;;;;;;8.18;100.00;98374.50;6315410;22;20445;-92
2023/12/05 01:57:05;;;;;;;4.65;1.83;;;;;;;8.23;100.00;98391.16;6315142;22;20026;-93
2023/12/05 01:59:32;;;;;;;5.20;2.25;;;;;;;8.36;100.00;98407.63;6315331;22;20019;-92
2023/12/05 02:01:59;;;;;;;8.00;1.98;;;;;;;8.17;100.00;98352.41;6314069;22;20023;-93
2023/12/05 02:04:25;;;;;;;5.30;1.65;;;;;;;8.10;100.00;98387.91;6315968;22;20021;-93
2023/12/05 02:06:51;;;;;;;5.30;1.77;;;;;;;7.36;100.00;98229.94;6314820;22;20038;-94
2023/12/05 02:09:19;;;;;;;8.25;2.25;;;;;;;8.16;100.00;98336.59;6314892;22;20444;-92
2023/12/05 02:11:46;;;;;;;4.07;1.85;;;;;;;7.23;100.00;98223.19;6315123;22;20038;-94
2023/12/05 02:14:12;;;;;;;2.30;1.55;;;;;;;7.69;100.00;98281.19;6314553;22;20019;-92
2023/12/05 02:16:45;;;;;;;5.22;1.60;;;;;;;8.12;100.00;98338.44;6314423;22;20039;-93
2023/12/05 02:19:39;;;;;;;6.03;1.80;;;;;;;8.08;100.00;98350.00;6315870;22;20006;-93
2023/12/05 02:22:11;;;;;;;2.83;1.35;;;;;;;7.89;100.00;98290.44;6314943;22;20023;-93
2023/12/05 02:24:46;;;;;;;3.20;1.65;;;;;;;7.86;100.00;98272.88;6314944;22;20046;-94
2023/12/05 02:27:18;;;;;;;3.30;1.55;;;;;;;7.62;100.00;98276.97;6315038;22;20029;-95
2023/12/05 02:29:50;;;;;;;5.78;1.58;;;;;;;7.74;100.00;98265.22;6315419;22;20014;-93
2023/12/05 02:32:16;;;;;;;5.75;1.85;;;;;;;7.80;100.00;98267.72;6315474;22;20010;-93
2023/12/05 02:34:42;;;;;;;7.60;2.50;;;;;;;7.80;100.00;98305.63;6346822;22;20056;-92
2023/12/05 02:37:15;;;;;;;3.35;1.60;;;;;;;7.43;100.00;98197.16;6345678;22;20075;-92
2023/12/05 02:39:47;;;;;;;4.88;1.88;;;;;;;7.44;100.00;98233.28;6345262;22;20429;-93
2023/12/05 02:42:15;;;;;;;3.85;2.15;;;;;;;7.67;100.00;98234.50;6345075;22;20014;-94
2023/12/05 02:44:47;;;;;;;4.40;1.85;;;;;;;8.05;100.00;98257.41;6346554;22;20448;-94
2023/12/05 02:47:19;;;;;;;3.00;1.73;;;;;;;7.88;100.00;98220.75;6345687;22;20019;-93
2023/12/05 02:49:45;;;;;;;5.68;1.75;;;;;;;8.11;100.00;98266.94;6346308;22;20046;-95
2023/12/05 02:52:11;;;;;;;5.03;2.70;;;;;;;7.68;100.00;98215.97;6346656;22;20025;-93
2023/12/05 02:54:37;;;;;;;3.30;1.65;;;;;;;8.47;100.00;98302.25;6346914;22;20015;-95
2023/12/05 02:57:04;;;;;;;3.63;1.80;;;;;;;8.46;100.00;98310.25;6346537;22;20025;-94
2023/12/05 02:59:29;;;;;;;4.15;1.88;;;;;;;7.76;100.00;98184.00;6347137;22;20024;-95
2023/12/05 03:01:55;;;;;;;7.10;2.25;;;;;;;8.32;100.00;98254.94;6344887;22;20108;-93
2023/12/05 03:04:23;;;;;;;5.63;2.47;;;;;;;8.12;100.00;98205.16;6346610;22;20339;-93
2023/12/05 03:06:49;;;;;;;4.82;1.95;;;;;;;7.88;100.00;98167.81;6346631;22;20072;-94
2023/12/05 03:09:14;;;;;;;4.60;2.65;;;;;;;8.13;100.00;98176.00;6347131;22;20026;-93
2023/12/05 03:11:40;;;;;;;3.78;1.92;;;;;;;8.06;100.00;98147.06;6346232;22;20025;-93
2023/12/05 03:14:06;;;;;;;7.05;2.80;;;;;;;8.14;100.00;98225.38;6346163;22;20025;-94
2023/12/05 03:16:32;;;;;;;5.25;2.40;;;;;;;8.11;100.00;98175.16;6345355;22;20326;-93
2023/12/05 03:18:58;;;;;;;9.02;2.38;;;;;;;8.62;100.00;98269.19;6346499;22;20026;-93
2023/12/05 03:21:25;;;;;;;7.82;2.33;;;;;;;7.47;100.00;98098.28;6346212;22;20030;-93
2023/12/05 03:23:51;;;;;;;7.22;2.40;;;;;;;8.45;100.00;98242.28;6345119;22;20018;-93
2023/12/05 03:26:18;;;;;;;5.15;1.88;;;;;;;8.60;100.00;98258.63;6347237;22;20025;-93
2023/12/05 03:28:44;;;;;;;4.00;2.22;;;;;;;7.79;100.00;98113.34;6347293;22;20014;-94
2023/12/05 03:31:09;;;;;;;5.65;2.10;;;;;;;7.93;100.00;98136.78;6345773;22;20108;-93
2023/12/05 03:33:36;;;;;;;4.90;2.15;;;;;;;8.15;100.00;98145.00;6346658;22;20019;-94
2023/12/05 03:36:02;;;;;;;4.03;1.80;;;;;;;7.86;100.00;98102.59;6346678;22;20014;-94
2023/12/05 03:38:29;;;;;;;4.55;1.85;;;;;;;8.87;100.00;98239.34;6346675;22;20019;-93
2023/12/05 03:40:55;;;;;;;5.47;2.60;;;;;;;9.06;100.00;98261.75;6346448;22;20022;-92
2023/12/05 03:43:22;;;;;;;6.00;2.25;;;;;;;8.73;100.00;98218.53;6345933;22;20025;-91
2023/12/05 03:45:48;;;;;;;5.85;2.40;;;;;;;8.58;100.00;98156.22;6345877;22;20404;-93
2023/12/05 03:48:14;;;;;;;7.32;1.60;;;;;;;8.67;100.00;98165.69;6347278;22;20018;-94
2023/12/05 03:50:40;;;;;;;7.10;1.90;;;;;;;8.97;100.00;98216.94;6346271;22;20545;-93
2023/12/05 03:53:07;;;;;;;5.68;1.80;;;;;;;8.34;100.00;98097.69;6347622;22;20014;-95
2023/12/05 03:55:35;;;;;;;3.63;1.60;;;;;;;8.40;100.00;98116.09;6346892;22;20028;-94
2023/12/05 03:58:01;;;;;;;3.38;1.63;;;;;;;8.40;100.00;98155.84;6347183;22;20018;-93
2023/12/05 04:00:27;;;;;;;4.05;1.67;;;;;;;8.35;100.00;98122.38;6346269;22;20111;-95
2023/12/05 04:02:53;;;;;;;4.85;1.85;;;;;;;8.75;100.00;98199.00;6344940;22;20010;-95
2023/12/05 04:05:19;;;;;;;3.78;2.28;;;;;;;9.14;100.00;98235.88;6345442;22;20045;-93
2023/12/05 04:07:45;;;;;;;4.28;1.60;;;;;;;8.76;100.00;98168.06;6345246;22;20429;-93
2023/12/05 04:10:11;;;;;;;4.57;1.90;;;;;;;8.68;100.00;98200.13;6345958;22;20025;-93
2023/12/05 04:12:41;;;;;;;5.68;1.58;;;;;;;9.14;100.00;98273.03;6344879;22;20019;-94
2023/12/05 04:15:08;;;;;;;4.97;1.77;;;;;;;8.89;100.00;98240.16;6343613;22;20015;-93
2023/12/05 04:17:34;;;;;;;3.55;1.73;;;;;;;8.52;100.00;98162.59;6344910;22;20487;-93
2023/12/05 04:20:00;;;;;;;4.60;1.67;;;;;;;7.98;100.00;98070.47;6344701;22;20018;-92
2023/12/05 04:22:26;;;;;;;8.50;1.65;;;;;;;9.03;100.00;98224.72;6344227;22;20042;-93
2023/12/05 04:24:52;;;;;;;3.92;1.23;;;;;;;9.03;100.00;98219.44;6344230;22;20018;-94
2023/12/05 04:27:18;;;;;;;3.40;1.70;;;;;;;9.01;100.00;98248.63;6344862;22;20549;-93
2023/12/05 04:29:45;;;;;;;4.85;1.58;;;;;;;8.90;100.00;98207.44;6346114;22;20042;-93
2023/12/05 04:32:11;;;;;;;6.45;1.73;;;;;;;8.98;100.00;98224.00;6344636;22;20017;-93
2023/12/05 04:34:41;;;;;;;5.65;2.20;;;;;;;8.78;100.00;98172.44;6346374;22;20022;-93
2023/12/05 04:37:07;;;;;;;6.20;1.83;;;;;;;8.90;100.00;98212.75;6346491;22;20093;-93
2023/12/05 04:39:33;;;;;;;6.78;1.77;;;;;;;8.92;100.00;98222.38;6314664;22;20042;-94
2023/12/05 04:41:59;;;;;;;7.68;3.28;;;;;;;9.09;100.00;98218.38;6314708;22;20341;-92
2023/12/05 04:44:27;;;;;;;5.65;1.98;;;;;;;8.68;100.00;98140.94;6313697;22;20452;-91
2023/12/05 04:46:57;;;;;;;8.25;2.13;;;;;;;8.32;100.00;98096.88;6311786;22;20429;-92
2023/12/05 04:49:23;;;;;;;5.20;1.80;;;;;;;8.98;100.00;98218.72;6314217;22;20014;-92
2023/12/05 04:51:49;;;;;;;5.60;1.90;;;;;;;8.86;100.00;98192.53;6314774;22;20092;-91
2023/12/05 04:54:14;;;;;;;5.35;2.10;;;;;;;8.51;100.00;98144.94;6315309;22;20110;-92
2023/12/05 04:56:41;;;;;;;6.88;2.40;;;;;;;8.73;100.00;98197.31;6341248;22;20345;-92
2023/12/05 04:59:07;;;;;;;4.28;1.85;;;;;;;8.82;100.00;98184.66;6315032;22;20106;-92
2023/12/05 05:01:33;;;;;;;6.80;1.83;;;;;;;9.16;100.00;98239.34;6312643;22;20115;-91
2023/12/05 05:04:00;;;;;;;4.95;2.25;;;;;;;8.93;100.00;98192.28;6315105;22;20019;-93
2023/12/05 05:06:26;;;;;;;3.85;2.05;;;;;;;8.66;100.00;98161.31;6315622;22;20387;-93
2023/12/05 05:08:52;;;;;;;5.70;2.30;;;;;;;8.52;100.00;98140.50;6315364;22;20068;-92
2023/12/05 05:11:18;;;;;;;7.38;1.95;;;;;;;8.80;100.00;98183.88;6315000;22;20044;-94
2023/12/05 05:13:44;;;;;;;4.50;1.63;;;;;;;8.31;100.00;98111.03;6314361;22;20018;-93
2023/12/05 05:16:10;;;;;;;5.82;1.90;;;;;;;8.62;100.00;98171.13;6311991;22;20155;-92
2023/12/05 05:18:37;;;;;;;8.60;2.30;;;;;;;8.57;100.00;98150.06;6314102;22;19999;-93
2023/12/05 05:21:05;;;;;;;7.43;2.22;;;;;;;8.42;100.00;98169.06;6313810;22;20041;-92
2023/12/05 05:23:31;;;;;;;5.88;2.15;;;;;;;8.38;100.00;98149.69;6313514;22;20045;-92
2023/12/05 05:25:57;;;;;;;7.22;2.50;;;;;;;7.52;100.00;98092.88;6312705;22;20026;-93
2023/12/05 05:28:23;;;;;;;5.95;2.40;;;;;;;7.96;100.00;98144.66;6313200;22;20097;-93
2023/12/05 05:30:54;;;;;;;6.22;3.00;;;;;;;8.44;100.00;98214.91;6307665;22;20393;-91
2023/12/05 05:33:20;;;;;;;4.95;2.10;;;;;;;8.55;100.00;98194.28;6312069;22;20049;-92
2023/12/05 05:35:47;;;;;;;4.38;2.08;;;;;;;8.56;100.00;98193.34;6312182;22;20022;-91
2023/12/05 05:38:14;;;;;;;5.10;2.53;;;;;;;8.56;100.00;98196.00;6313590;22;20015;-92
2023/12/05 05:40:40;;;;;;;3.58;1.65;;;;;;;8.58;100.00;98145.63;6312904;22;20544;-90
2023/12/05 05:43:06;;;;;;;5.80;2.05;;;;;;;8.61;100.00;98164.09;6313537;22;20018;-92
2023/12/05 05:45:31;;;;;;;7.03;2.03;;;;;;;8.62;100.00;98140.19;6310385;22;20018;-92
2023/12/05 05:47:57;;;;;;;3.95;1.85;;;;;;;8.72;100.00;98198.22;6314183;22;20018;-92
2023/12/05 05:50:23;;;;;;;3.85;1.98;;;;;;;8.05;100.00;98060.59;6314186;22;20019;-92
2023/12/05 05:52:49;;;;;;;6.70;1.83;;;;;;;8.43;100.00;98145.13;6313638;22;20025;-90
2023/12/05 05:55:18;;;;;;;6.63;1.90;;;;;;;8.16;100.00;98122.06;6313687;22;20026;-91
2023/12/05 05:57:44;;;;;;;4.72;2.22;;;;;;;7.82;100.00;98091.19;6313716;22;20015;-91
2023/12/05 06:00:11;;;;;;;5.40;2.20;;;;;;;7.93;100.00;98067.09;6311064;22;20085;-92
2023/12/05 06:02:37;;;;;;;3.95;1.75;;;;;;;8.12;100.00;98076.25;6313532;22;20019;-92
2023/12/05 06:05:04;;;;;;;5.55;2.13;;;;;;;8.20;100.00;98102.53;6313653;22;20064;-92
2023/12/05 06:07:30;;;;;;;6.95;1.80;;;;;;;8.58;100.00;98142.97;6313119;22;20022;-92
2023/12/05 06:09:56;;;;;;;5.85;1.92;;;;;;;8.07;100.00;98048.16;6313298;22;20025;-93
2023/12/05 06:12:24;;;;;;;4.72;1.60;;;;;;;8.24;100.00;98053.84;6312610;22;20471;-92
2023/12/05 06:14:49;;;;;;;8.73;2.15;;;;;;;8.70;100.00;98129.38;6313154;22;20413;-93
2023/12/05 06:17:15;;;;;;;5.05;1.67;;;;;;;8.85;100.00;98170.47;6308877;22;20026;-93
2023/12/05 06:19:42;;;;;;;5.28;1.50;;;;;;;8.38;100.00;98074.63;6312930;22;20440;-91
2023/12/05 06:22:08;;;;;;;4.32;2.03;;;;;;;8.69;100.00;98127.63;6312061;22;20022;-92
2023/12/05 06:24:34;;;;;;;5.47;1.42;;;;;;;8.76;100.00;98107.97;6312735;22;20022;-93
2023/12/05 06:27:01;;;;;;;4.82;1.73;;;;;;;8.55;100.00;98060.94;6311280;22;20023;-91
2023/12/05 06:29:28;;;;;;;4.65;2.05;;;;;;;8.84;100.00;98094.47;6312082;22;20641;-91
2023/12/05 06:31:55;;;;;;;3.42;1.45;;;;;;;8.70;100.00;98105.50;6306241;22;20019;-91
2023/12/05 06:34:20;;;;;;;3.78;1.60;;;;;;;8.99;100.00;98140.88;6286813;22;20382;-91
2023/12/05 06:36:46;;;;;;;4.35;1.70;;;;;;;9.09;100.00;98137.03;6280181;22;20026;-91
2023/12/05 06:39:12;;;;;;;2.30;1.20;;;;;;;8.79;100.00;98083.16;6281718;22;20038;-92
2023/12/05 06:41:38;;;;;;;3.42;1.65;;;;;;;8.50;100.00;98036.31;6280963;22;20030;-92
2023/12/05 06:44:04;;;;;;;5.05;1.58;;;;;;;9.15;100.00;98162.47;6279949;22;20019;-90
2023/12/05 06:46:31;;;;;;;3.97;1.85;;;;;;;8.15;100.00;97972.00;6276332;22;20054;-91
2023/12/05 06:48:58;;;;;;;2.88;1.42;;;;;;;8.66;100.00;98063.25;6280997;22;20096;-91
2023/12/05 06:51:25;;;;;;;3.22;1.50;;;;;;;8.69;100.00;98071.94;6278663;22;20031;-92
2023/12/05 06:53:51;;;;;;;6.93;2.05;;;;;;;8.43;100.00;98043.59;6281488;22;20080;-91
2023/12/05 06:56:19;;;;;;;3.38;1.70;;;;;;;8.55;100.00;98068.88;6281658;22;20019;-92
2023/12/05 06:58:45;;;;;;;9.38;2.72;;;;;;;8.52;100.00;98056.59;6281326;22;20023;-92
2023/12/05 07:01:11;;;;;;;6.97;3.08;;;;;;;9.13;100.00;98154.59;6281569;22;20115;-93
2023/12/05 07:03:38;;;;;;;8.13;2.85;;;;;;;8.92;100.00;98153.44;6281498;22;20019;-94
2023/12/05 07:06:05;;;;;;;3.17;1.90;;;;;;;8.48;100.00;98078.78;6281452;22;20042;-92
2023/12/05 07:08:31;;;;;;;3.80;1.67;;;;;;;8.61;100.00;98127.00;6282163;22;20041;-93
2023/12/05 07:10:57;;;;;;;4.22;1.50;;;;;;;8.23;100.00;98074.16;6282337;22;20023;-92
2023/12/05 07:13:23;;;;;;;3.20;1.63;;;;;;;8.94;100.00;98137.50;6281836;22;20015;-93
2023/12/05 07:15:49;;;;;;;3.33;1.45;;;;;;;8.19;100.00;98053.97;6279956;22;20034;-93
2023/12/05 07:18:14;;;;;;;3.22;1.42;;;;;;;8.14;100.00;98031.19;6282202;22;20027;-91
2023/12/05 07:20:42;;;;;;;4.57;1.50;;;;;;;7.93;100.00;98022.94;6282151;22;20027;-93
2023/12/05 07:23:08;;;;;;;4.93;1.77;;;;;;;7.96;100.00;98057.28;6282034;22;20449;-93
2023/12/05 07:25:33;;;;;;;3.92;1.45;;;;;;;8.38;100.00;98070.19;6280348;22;20034;-92
2023/12/05 07:27:59;;;;;;;6.35;1.52;;;;;;;9.10;100.00;98143.19;6281255;22;20027;-91
2023/12/05 07:30:25;;;;;;;6.78;2.05;;;;;;;9.20;100.00;98139.34;6279246;22;20015;-92
2023/12/05 07:32:51;;;;;;;5.65;1.60;;;;;;;8.68;100.00;98088.78;6282294;22;20023;-91
2023/12/05 07:35:17;;;;;;;4.57;2.00;;;;;;;8.36;100.00;98101.16;6282199;22;20102;-94
2023/12/05 07:37:44;;;;;;;6.18;2.13;;;;;;;7.75;100.00;97994.38;6282575;22;20340;-89
2023/12/05 07:40:11;;;;;;;3.22;1.83;;;;;;;8.53;100.00;98076.88;6282240;22;20042;-90
2023/12/05 07:42:36;;;;;;;4.38;1.77;;;;;;;8.61;100.00;98076.66;6281854;22;20111;-92
2023/12/05 07:45:05;;;;;;;5.75;2.13;;;;;;;9.00;100.00;98122.28;6278093;22;20047;-91
2023/12/05 07:47:30;;;;;;;5.68;2.85;;;;;;;8.64;100.00;98065.94;6280905;22;20050;-93
2023/12/05 07:49:56;;;;;;;13.75;2.90;;;;;;;8.92;100.00;98108.38;6308745;22;20016;-90
2023/12/05 07:52:22;;;;;;;7.13;2.83;;;;;;;8.87;100.00;98088.22;6281616;22;20046;-89
2023/12/05 07:54:49;;;;;;;7.93;3.00;;;;;;;8.84;100.00;98097.13;6281937;22;20022;-92
2023/12/05 07:57:21;;;;;;;9.23;3.63;;;;;;;8.63;100.00;98038.56;6307729;22;20392;-91
2023/12/05 07:59:47;;;;;;;6.97;3.20;;;;;;;9.05;100.00;98087.63;6281499;22;20087;-93
2023/12/05 08:02:13;;;;;;;9.45;3.58;;;;;;;8.66;100.00;98034.97;6279932;22;20408;-92
2023/12/05 08:04:39;;;;;;;8.80;3.42;;;;;;;8.76;100.00;98027.56;6282905;22;20015;-93
2023/12/05 08:07:05;;;;;;;8.48;3.63;;;;;;;9.20;100.00;98096.91;6282155;22;20072;-92
2023/12/05 08:09:31;;;;;;;8.50;4.30;;;;;;;8.38;100.00;97958.94;6284200;22;20019;-91
2023/12/05 08:11:59;;;;;;;6.78;3.90;;;;;;;9.23;100.00;98124.16;6283059;22;20408;-91
2023/12/05 08:14:27;;;;;;;9.25;3.05;;;;;;;8.79;100.00;98036.31;6283840;22;20015;-91
2023/12/05 08:16:56;;;;;;;6.18;3.05;;;;;;;8.67;100.00;97999.56;6281835;22;20072;-94
2023/12/05 08:19:21;;;;;;;6.78;3.42;;;;;;;9.46;100.00;98115.47;6309494;22;20042;-94
2023/12/05 08:21:47;;;;;;;8.80;4.45;;;;;;;8.98;100.00;98038.38;6283770;22;20433;-91
2023/12/05 08:24:13;;;;;;;7.88;3.92;;;;;;;9.23;100.00;98083.53;6283447;22;20512;-91
2023/12/05 08:26:43;;;;;;;6.15;3.13;;;;;;;8.47;100.00;97930.44;6283704;22;20022;-92
2023/12/05 08:29:18;;;;;;;9.23;3.50;;;;;;;8.95;100.00;98014.59;6283748;22;20064;-92
2023/12/05 08:31:46;;;;;;;6.80;3.30;;;;;;;8.87;100.00;98004.25;6281391;22;20046;-92
2023/12/05 08:34:12;;;;;;;8.40;3.50;;;;;;;9.18;100.00;98096.06;6283967;22;20507;-91
2023/12/05 08:36:43;;;;;;;6.65;3.67;;;;;;;9.11;100.00;98052.06;6284036;22;20053;-91
2023/12/05 08:39:08;;;;;;;5.47;2.75;;;;;;;9.26;100.00;98017.13;6283899;22;20102;-94
2023/12/05 08:41:34;;;;;;;5.85;2.88;;;;;;;9.26;100.00;97995.88;6284465;22;20065;-94
2023/12/05 08:44:00;;;;;;;4.93;2.92;;;;;;;9.45;100.00;98057.13;6283768;22;20464;-93
2023/12/05 08:46:28;;;;;;;5.35;2.35;;;;;;;9.58;100.00;98055.78;6282636;22;19995;-94
2023/12/05 08:48:53;;;;;;;5.10;2.25;;;;;;;9.58;100.00;98076.16;6283261;22;20030;-93
2023/12/05 08:51:19;;;;;;;5.18;1.75;;;;;;;9.03;100.00;97946.25;6282570;22;20027;-92
2023/12/05 08:53:45;;;;;;;3.33;1.65;;;;;;;9.41;100.00;98002.44;6283113;22;20015;-93
2023/12/05 08:56:12;;;;;;;4.22;1.92;;;;;;;9.52;100.00;98008.25;6283606;22;20019;-93
2023/12/05 08:58:39;;;;;;;3.58;1.73;;;;;;;9.31;100.00;98001.91;6283659;22;20015;-93
2023/12/05 09:01:05;;;;;;;5.70;1.80;;;;;;;9.28;100.00;98011.72;6282588;22;20019;-92
2023/12/05 09:03:32;;;;;;;2.95;1.35;;;;;;;9.72;100.00;98033.22;6283192;22;20022;-94
2023/12/05 09:05:58;;;;;;;4.45;1.48;;;;;;;9.46;100.00;97982.78;6309133;22;20023;-94
2023/12/05 09:08:24;;;;;;;2.17;1.48;;;;;;;10.22;100.00;98104.91;6309014;22;20027;-92
2023/12/05 09:10:53;;;;;;;3.92;1.05;;;;;;;9.76;100.00;98021.56;6310731;22;20487;-93
2023/12/05 09:13:18;;;;;;;3.42;1.27;;;;;;;9.80;100.00;97989.56;6283078;22;20023;-92
2023/12/05 09:15:45;;;;;;;4.28;1.45;;;;;;;10.34;100.00;98098.31;6281708;22;20019;-93
2023/12/05 09:18:12;;;;;;;5.70;1.92;;;;;;;10.31;100.00;98059.44;6283323;22;20023;-93
2023/12/05 09:20:39;;;;;;;5.28;3.03;;;;;;;9.74;100.00;97947.28;6283080;22;20114;-93
2023/12/05 09:23:05;;;;;;;6.22;3.20;;;;;;;9.92;100.00;97974.94;6283074;22;20095;-92
2023/12/05 09:25:32;;;;;;;6.43;3.15;;;;;;;10.80;100.00;98101.88;6283003;22;20367;-93
2023/12/05 09:28:02;;;;;;;6.30;3.58;;;;;;;10.07;100.00;97961.09;6283164;22;20024;-93
2023/12/05 09:30:28;;;;;;;7.47;2.20;;;;;;;10.40;100.00;97983.78;6280312;22;20046;-91
2023/12/05 09:32:54;;;;;;;3.53;1.40;;;;;;;10.06;100.00;98012.50;6287280;22;20023;-93
2023/12/05 09:35:20;;;;;;;2.05;1.50;;;;;;;10.13;100.00;98006.94;6312712;22;20313;-91
2023/12/05 09:37:47;;;;;;;3.30;1.10;;;;;;;9.82;100.00;97974.44;6314523;22;20398;-92
2023/12/05 09:40:13;;;;;;;1.25;0.75;;;;;;;9.29;100.00;97933.88;6314118;22;20019;-91
2023/12/05 09:42:43;;;;;;;2.03;0.90;;;;;;;9.81;100.00;97991.28;6313480;22;20018;-93
2023/12/05 09:45:14;;;;;;;2.47;0.80;;;;;;;9.70;100.00;97945.66;6312596;22;20022;-91
2023/12/05 09:47:42;;;;;;;1.27;0.88;;;;;;;9.81;100.00;97942.63;6314310;22;20029;-93
2023/12/05 09:50:09;;;;;;;4.15;1.27;;;;;;;9.75;100.00;97941.03;6313887;22;20442;-94
2023/12/05 09:52:35;;;;;;;1.42;0.80;;;;;;;10.54;100.00;98060.34;6314016;22;20043;-92
2023/12/05 09:55:10;;;;;;;8.93;4.38;;;;;;;10.17;100.00;97980.22;6313932;22;20026;-93
2023/12/05 09:57:38;;;;;;;6.78;2.47;;;;;;;10.84;100.00;98087.53;6314057;22;20025;-93
2023/12/05 10:00:05;;;;;;;2.50;1.08;;;;;;;10.37;100.00;98008.69;6312181;22;20019;-93
2023/12/05 10:02:36;;;;;;;5.15;1.00;;;;;;;10.42;100.00;98012.03;6313584;22;20042;-93
2023/12/05 10:05:05;;;;;;;3.05;1.02;;;;;;;10.69;100.00;98073.94;6313873;22;20049;-93
2023/12/05 10:07:31;;;;;;;3.28;1.20;;;;;;;10.13;100.00;97964.41;6313649;22;20026;-93
2023/12/05 10:09:58;;;;;;;2.85;1.02;;;;;;;10.08;100.00;97959.28;6339880;22;20023;-93
2023/12/05 10:12:25;;;;;;;4.97;2.88;;;;;;;9.96;100.00;97918.13;6315946;22;20014;-92
2023/12/05 10:14:52;;;;;;;6.45;2.50;;;;;;;10.18;100.00;97926.13;6313094;22;20019;-91
2023/12/05 10:17:17;;;;;;;7.13;1.80;;;;;;;10.31;100.00;97946.94;6311315;22;20026;-93
2023/12/05 10:19:43;;;;;;;5.45;2.13;;;;;;;10.66;100.00;97998.72;6313372;22;20386;-91
2023/12/05 10:22:12;;;;;;;4.18;2.30;;;;;;;10.86;100.00;98038.69;6311643;22;20030;-92
2023/12/05 10:24:43;;;;;;;7.68;2.50;;;;;;;10.28;100.00;97939.94;6313206;22;20015;-92
2023/12/05 10:27:09;;;;;;;5.72;2.38;;;;;;;10.27;100.00;97916.94;6312591;22;20345;-94
2023/12/05 10:29:41;;;;;;;5.10;2.67;;;;;;;10.62;100.00;98002.41;6313317;22;20029;-94
2023/12/05 10:32:08;;;;;;;5.57;2.83;;;;;;;10.62;100.00;97950.09;6311556;22;20030;-94
2023/12/05 10:34:47;;;;;;;32.50;16.73;;;;;;;11.41;100.00;98054.19;6284914;22;20015;-92
2023/12/05 10:37:13;;;;;;;6.97;3.35;;;;;;;11.11;100.00;97997.78;6281876;22;20464;-92
2023/12/05 10:39:39;;;;;;;4.15;1.58;;;;;;;11.29;100.00;98046.69;6282195;22;20015;-93
2023/12/05 10:42:07;;;;;;;3.90;1.33;;;;;;;10.31;100.00;97921.25;6282440;22;20015;-93
2023/12/05 10:44:37;;;;;;;5.13;1.45;;;;;;;10.71;100.00;97932.91;6282357;22;20464;-92
2023/12/05 10:47:05;;;;;;;3.45;1.40;;;;;;;11.50;100.00;98028.97;6281139;22;20023;-94
2023/12/05 10:49:32;;;;;;;3.10;1.40;;;;;;;11.10;100.00;97940.16;6283160;22;20021;-93
2023/12/05 10:51:58;;;;;;;2.65;1.30;;;;;;;11.16;100.00;97955.00;6282233;22;20113;-91
2023/12/05 10:54:25;;;;;;;4.20;1.92;;;;;;;11.46;100.00;98011.41;6282240;22;20065;-90
2023/12/05 10:56:57;;;;;;;5.60;2.95;;;;;;;11.56;100.00;98006.53;6282027;22;20026;-93
2023/12/05 10:59:25;;;;;;;3.85;1.90;;;;;;;11.08;100.00;97934.94;6282605;22;20015;-94
2023/12/05 11:01:52;;;;;;;2.40;1.42;;;;;;;11.31;100.00;97971.19;6280912;22;20015;-93
2023/12/05 11:04:20;;;;;;;2.95;1.60;;;;;;;11.64;100.00;97999.94;6307854;22;20015;-94
2023/12/05 11:06:46;;;;;;;4.10;2.05;;;;;;;11.44;100.00;97975.97;6282392;22;20010;-92
2023/12/05 11:09:12;;;;;;;3.90;1.80;;;;;;;11.85;100.00;98021.25;6281867;22;20015;-92
2023/12/05 11:11:44;;;;;;;3.28;2.10;;;;;;;11.15;100.00;97890.28;6282078;22;20015;-92
2023/12/05 11:14:12;;;;;;;3.97;1.75;;;;;;;11.21;100.00;97906.00;6281505;22;20026;-92
2023/12/05 11:16:42;;;;;;;5.55;2.05;;;;;;;11.29;100.00;97901.19;6279506;22;20011;-93
2023/12/05 11:19:28;;;;;;;14.18;6.35;;;;;;;11.29;100.00;97890.53;6282454;22;20031;-92
2023/12/05 11:22:05;;;;;;;15.20;5.90;;;;;;;11.16;100.00;97861.88;6281845;22;20022;-94
2023/12/05 11:24:50;;;;;;;16.88;8.30;;;;;;;11.28;100.00;97875.50;6281104;22;20019;-93
2023/12/05 11:27:32;;;;;;;10.00;6.15;;;;;;;11.29;100.00;97881.69;6308110;22;20019;-92
2023/12/05 11:30:14;;;;;;;20.98;8.63;;;;;;;11.17;100.00;97860.94;6282696;22;20023;-94
2023/12/05 11:32:52;;;;;;;7.00;3.22;;;;;;;12.08;100.00;98005.13;6285123;22;20082;-91